createdAt,value
2023-05-19T00:00:18.227Z,0.00
2023-05-19T00:01:19.376Z,0.00
2023-05-19T00:02:19.622Z,0.00
2023-05-19T00:03:19.827Z,0.00
2023-05-19T00:04:18.880Z,0.02
2023-05-19T00:05:18.118Z,0.01
2023-05-19T00:06:18.330Z,0.00
2023-05-19T00:07:19.445Z,0.01
2023-05-19T00:08:19.657Z,0.00
2023-05-19T00:09:18.813Z,0.00
2023-05-19T00:10:17.954Z,0.06
2023-05-19T00:11:18.122Z,0.02
2023-05-19T00:12:19.275Z,0.05
2023-05-19T00:13:18.486Z,0.02
2023-05-19T00:14:20.348Z,0.00
2023-05-19T00:15:17.838Z,0.00
2023-05-19T00:16:18.034Z,0.00
2023-05-19T00:17:19.182Z,0.02
2023-05-19T00:18:19.370Z,0.00
2023-05-19T00:19:18.616Z,0.00
2023-05-19T00:20:17.829Z,0.00
2023-05-19T00:21:17.979Z,0.00
2023-05-19T00:22:19.196Z,0.00
2023-05-19T00:23:19.365Z,0.00
2023-05-19T00:24:17.603Z,0.02
2023-05-19T00:25:18.773Z,0.00
2023-05-19T00:26:19.553Z,0.02
2023-05-19T00:27:19.198Z,0.02
2023-05-19T00:28:19.406Z,0.00
2023-05-19T00:29:18.685Z,0.02
2023-05-19T00:30:18.769Z,0.00
2023-05-19T00:31:18.061Z,0.00
2023-05-19T00:32:18.721Z,0.00
2023-05-19T00:33:18.393Z,0.00
2023-05-19T00:34:17.591Z,0.00
2023-05-19T00:35:18.724Z,0.00
2023-05-19T00:36:17.963Z,0.02
2023-05-19T00:37:18.164Z,0.02
2023-05-19T00:38:19.367Z,0.00
2023-05-19T00:39:17.536Z,0.00
2023-05-19T00:40:17.728Z,0.02
2023-05-19T00:41:17.922Z,0.02
2023-05-19T00:42:19.078Z,0.00
2023-05-19T00:43:19.298Z,0.02
2023-05-19T00:44:17.533Z,0.00
2023-05-19T00:45:17.705Z,0.00
2023-05-19T00:46:17.967Z,0.02
2023-05-19T00:47:18.134Z,0.02
2023-05-19T00:48:17.313Z,0.01
2023-05-19T00:49:17.508Z,0.02
2023-05-19T00:50:18.264Z,0.06
2023-05-19T00:51:17.907Z,0.00
2023-05-19T00:52:18.122Z,0.02
2023-05-19T00:53:17.299Z,0.02
2023-05-19T00:54:18.484Z,0.02
2023-05-19T00:55:17.740Z,0.00
2023-05-19T00:56:37.714Z,0.02
2023-05-19T00:57:18.168Z,0.00
2023-05-19T00:58:17.328Z,0.00
2023-05-19T00:59:17.509Z,0.04
2023-05-19T01:00:17.726Z,0.00
2023-05-19T01:01:18.016Z,0.00
2023-05-19T01:02:17.143Z,0.02
2023-05-19T01:03:17.397Z,0.00
2023-05-19T01:04:17.516Z,0.00
2023-05-19T01:05:17.733Z,0.02
2023-05-19T01:06:17.951Z,0.05
2023-05-19T01:07:17.101Z,0.00
2023-05-19T01:08:19.457Z,0.02
2023-05-19T01:09:17.538Z,0.00
2023-05-19T01:10:17.752Z,0.02
2023-05-19T01:11:17.959Z,0.06
2023-05-19T01:12:18.082Z,0.00
2023-05-19T01:13:17.355Z,0.02
2023-05-19T01:14:17.602Z,0.00
2023-05-19T01:15:17.781Z,0.02
2023-05-19T01:16:16.984Z,0.02
2023-05-19T01:17:17.169Z,0.00
2023-05-19T01:18:17.411Z,0.00
2023-05-19T01:19:17.677Z,0.02
2023-05-19T01:20:18.290Z,0.00
2023-05-19T01:21:17.893Z,0.00
2023-05-19T01:22:17.123Z,0.00
2023-05-19T01:23:17.372Z,0.00
2023-05-19T01:24:17.546Z,0.04
2023-05-19T01:25:17.746Z,0.02
2023-05-19T01:26:16.940Z,0.06
2023-05-19T01:27:18.100Z,0.00
2023-05-19T01:28:17.324Z,0.00
2023-05-19T01:29:17.546Z,0.00
2023-05-19T01:30:17.663Z,0.02
2023-05-19T01:31:16.941Z,0.02
2023-05-19T01:32:17.195Z,0.02
2023-05-19T01:33:17.338Z,0.02
2023-05-19T01:34:17.542Z,0.02
2023-05-19T01:35:16.785Z,0.00
2023-05-19T01:36:17.902Z,0.00
2023-05-19T01:37:17.864Z,0.00
2023-05-19T01:38:17.400Z,0.00
2023-05-19T01:39:17.616Z,0.02
2023-05-19T01:40:16.813Z,0.02
2023-05-19T01:41:17.037Z,0.00
2023-05-19T01:42:18.262Z,0.00
2023-05-19T01:43:18.112Z,0.00
2023-05-19T01:44:16.688Z,0.00
2023-05-19T01:45:16.923Z,0.02
2023-05-19T01:46:17.225Z,0.02
2023-05-19T01:47:17.314Z,0.01
2023-05-19T01:48:17.513Z,0.00
2023-05-19T01:49:16.736Z,0.00
2023-05-19T01:50:16.817Z,0.06
2023-05-19T01:51:17.947Z,0.00
2023-05-19T01:52:17.181Z,0.02
2023-05-19T01:53:17.382Z,0.02
2023-05-19T01:54:16.515Z,0.00
2023-05-19T01:55:16.784Z,0.01
2023-05-19T01:56:16.951Z,0.02
2023-05-19T01:57:17.130Z,0.02
2023-05-19T01:58:17.335Z,0.02
2023-05-19T01:59:16.535Z,0.00
2023-05-19T02:00:16.737Z,0.02
2023-05-19T02:01:16.735Z,0.02
2023-05-19T02:02:17.852Z,0.02
2023-05-19T02:03:18.105Z,0.01
2023-05-19T02:04:16.392Z,0.00
2023-05-19T02:05:16.563Z,0.01
2023-05-19T02:06:16.797Z,0.02
2023-05-19T02:07:17.018Z,0.00
2023-05-19T02:08:17.175Z,0.02
2023-05-19T02:09:17.481Z,0.02
2023-05-19T02:10:16.664Z,0.02
2023-05-19T02:11:17.873Z,0.00
2023-05-19T02:12:17.157Z,0.02
2023-05-19T02:13:16.337Z,0.02
2023-05-19T02:14:17.516Z,0.02
2023-05-19T02:15:16.763Z,0.02
2023-05-19T02:16:17.057Z,0.02
2023-05-19T02:17:17.131Z,0.02
2023-05-19T02:18:16.498Z,0.02
2023-05-19T02:19:16.652Z,0.02
2023-05-19T02:20:17.790Z,0.02
2023-05-19T02:21:18.009Z,0.01
2023-05-19T02:22:17.232Z,0.02
2023-05-19T02:23:16.451Z,0.02
2023-05-19T02:24:16.738Z,0.00
2023-05-19T02:25:16.893Z,0.00
2023-05-19T02:26:16.059Z,0.02
2023-05-19T02:27:16.294Z,0.00
2023-05-19T02:28:16.529Z,0.02
2023-05-19T02:29:16.783Z,0.00
2023-05-19T02:30:15.960Z,0.00
2023-05-19T02:31:20.193Z,0.02
2023-05-19T02:32:16.600Z,0.02
2023-05-19T02:33:16.638Z,0.02
2023-05-19T02:34:16.858Z,0.02
2023-05-19T02:35:16.107Z,0.02
2023-05-19T02:36:16.264Z,0.07
2023-05-19T02:37:16.504Z,0.02
2023-05-19T02:38:16.738Z,0.02
2023-05-19T02:39:15.895Z,0.05
2023-05-19T02:40:16.108Z,0.01
2023-05-19T02:41:16.423Z,0.01
2023-05-19T02:42:16.520Z,0.01
2023-05-19T02:43:16.750Z,0.05
2023-05-19T02:44:15.908Z,0.03
2023-05-19T02:45:16.141Z,0.02
2023-05-19T02:46:16.374Z,0.02
2023-05-19T02:47:16.643Z,0.02
2023-05-19T02:48:15.772Z,0.05
2023-05-19T02:49:15.967Z,0.02
2023-05-19T02:50:17.144Z,0.03
2023-05-19T02:51:17.383Z,0.04
2023-05-19T02:52:16.583Z,0.04
2023-05-19T02:53:15.854Z,0.04
2023-05-19T02:54:17.058Z,0.04
2023-05-19T02:55:16.281Z,0.05
2023-05-19T02:56:16.497Z,0.06
2023-05-19T02:57:15.664Z,0.31
2023-05-19T02:58:15.883Z,0.10
2023-05-19T02:59:16.142Z,0.19
2023-05-19T03:00:16.316Z,0.24
2023-05-19T03:01:15.495Z,0.22
2023-05-19T03:02:15.745Z,0.27
2023-05-19T03:03:16.111Z,0.22
2023-05-19T03:04:16.257Z,0.20
2023-05-19T03:05:16.372Z,0.28
2023-05-19T03:06:15.554Z,0.33
2023-05-19T03:07:15.771Z,0.37
2023-05-19T03:08:15.979Z,0.41
2023-05-19T03:09:16.195Z,0.41
2023-05-19T03:10:15.425Z,0.45
2023-05-19T03:11:16.559Z,0.57
2023-05-19T03:12:16.775Z,0.77
2023-05-19T03:13:16.054Z,0.64
2023-05-19T03:14:17.224Z,0.73
2023-05-19T03:15:15.474Z,0.86
2023-05-19T03:16:15.807Z,1.00
2023-05-19T03:17:15.939Z,1.16
2023-05-19T03:18:16.193Z,1.34
2023-05-19T03:19:15.357Z,1.56
2023-05-19T03:20:15.570Z,1.76
2023-05-19T03:21:15.858Z,2.00
2023-05-19T03:22:15.977Z,2.30
2023-05-19T03:23:16.204Z,2.59
2023-05-19T03:24:15.378Z,2.90
2023-05-19T03:25:15.599Z,3.32
2023-05-19T03:26:15.811Z,3.75
2023-05-19T03:27:16.134Z,4.26
2023-05-19T03:28:15.225Z,4.82
2023-05-19T03:29:16.440Z,5.42
2023-05-19T03:30:16.658Z,5.99
2023-05-19T03:31:16.878Z,6.63
2023-05-19T03:32:15.124Z,7.29
2023-05-19T03:33:15.648Z,8.09
2023-05-19T03:34:15.568Z,8.90
2023-05-19T03:35:15.808Z,9.84
2023-05-19T03:36:16.033Z,10.83
2023-05-19T03:37:16.202Z,11.84
2023-05-19T03:38:15.469Z,12.95
2023-05-19T03:39:15.729Z,14.17
2023-05-19T03:40:15.928Z,15.46
2023-05-19T03:41:15.092Z,16.81
2023-05-19T03:42:15.341Z,18.30
2023-05-19T03:43:15.604Z,19.92
2023-05-19T03:44:15.859Z,21.64
2023-05-19T03:45:14.968Z,23.44
2023-05-19T03:46:15.252Z,25.34
2023-05-19T03:47:15.405Z,27.37
2023-05-19T03:48:15.649Z,29.50
2023-05-19T03:49:18.020Z,31.87
2023-05-19T03:50:15.114Z,34.15
2023-05-19T03:51:16.369Z,36.78
2023-05-19T03:52:15.527Z,39.41
2023-05-19T03:53:15.784Z,42.08
2023-05-19T03:54:14.958Z,44.78
2023-05-19T03:55:15.317Z,47.75
2023-05-19T03:56:15.437Z,50.80
2023-05-19T03:57:15.696Z,54.30
2023-05-19T03:58:14.872Z,57.62
2023-05-19T03:59:16.076Z,61.39
2023-05-19T04:00:15.396Z,65.35
2023-05-19T04:01:15.590Z,69.55
2023-05-19T04:02:14.754Z,73.91
2023-05-19T04:03:15.214Z,78.51
2023-05-19T04:04:15.276Z,83.12
2023-05-19T04:05:15.463Z,88.05
2023-05-19T04:06:14.657Z,92.55
2023-05-19T04:07:14.931Z,97.39
2023-05-19T04:08:16.073Z,102.04
2023-05-19T04:09:15.337Z,107.00
2023-05-19T04:10:15.580Z,112.07
2023-05-19T04:11:15.960Z,117.50
2023-05-19T04:12:17.091Z,123.02
2023-05-19T04:13:15.225Z,128.23
2023-05-19T04:14:15.511Z,133.66
2023-05-19T04:15:14.720Z,138.66
2023-05-19T04:16:14.960Z,143.97
2023-05-19T04:17:15.319Z,149.40
2023-05-19T04:18:15.402Z,154.69
2023-05-19T04:19:14.572Z,162.74
2023-05-19T04:20:15.728Z,168.21
2023-05-19T04:21:15.002Z,174.12
2023-05-19T04:22:15.262Z,180.18
2023-05-19T04:23:15.478Z,186.07
2023-05-19T04:24:14.652Z,191.62
2023-05-19T04:25:14.867Z,197.03
2023-05-19T04:26:16.075Z,202.93
2023-05-19T04:27:15.337Z,208.20
2023-05-19T04:28:14.589Z,213.59
2023-05-19T04:29:15.720Z,219.18
2023-05-19T04:30:16.708Z,225.23
2023-05-19T04:31:15.242Z,232.09
2023-05-19T04:32:14.383Z,237.48
2023-05-19T04:33:14.621Z,243.20
2023-05-19T04:34:14.829Z,250.90
2023-05-19T04:35:15.072Z,256.82
2023-05-19T04:36:14.241Z,262.33
2023-05-19T04:37:14.466Z,267.80
2023-05-19T04:38:14.676Z,272.78
2023-05-19T04:39:14.984Z,277.62
2023-05-19T04:40:15.174Z,283.91
2023-05-19T04:41:14.357Z,289.17
2023-05-19T04:42:14.587Z,294.31
2023-05-19T04:43:14.864Z,300.36
2023-05-19T04:44:15.095Z,305.57
2023-05-19T04:45:17.407Z,311.49
2023-05-19T04:46:14.556Z,316.49
2023-05-19T04:47:14.726Z,321.88
2023-05-19T04:48:14.956Z,327.05
2023-05-19T04:49:14.126Z,332.67
2023-05-19T04:50:14.424Z,338.60
2023-05-19T04:51:14.648Z,344.32
2023-05-19T04:52:14.781Z,350.44
2023-05-19T04:53:14.049Z,356.43
2023-05-19T04:54:14.208Z,418.88
2023-05-19T04:55:14.429Z,413.27
2023-05-19T04:56:14.622Z,418.19
2023-05-19T04:57:14.809Z,419.86
2023-05-19T04:58:13.991Z,424.56
2023-05-19T04:59:15.135Z,425.73
2023-05-19T05:00:14.435Z,428.85
2023-05-19T05:01:14.634Z,430.27
2023-05-19T05:02:14.887Z,429.95
2023-05-19T05:03:15.169Z,434.88
2023-05-19T05:04:19.375Z,440.69
2023-05-19T05:05:14.355Z,440.78
2023-05-19T05:06:14.545Z,445.62
2023-05-19T05:07:14.798Z,448.85
2023-05-19T05:08:13.924Z,453.78
2023-05-19T05:09:15.062Z,458.53
2023-05-19T05:10:15.267Z,463.61
2023-05-19T05:11:14.517Z,468.25
2023-05-19T05:12:14.679Z,472.36
2023-05-19T05:13:13.953Z,477.13
2023-05-19T05:14:14.058Z,481.79
2023-05-19T05:15:14.237Z,486.27
2023-05-19T05:16:14.514Z,490.95
2023-05-19T05:17:13.623Z,494.81
2023-05-19T05:18:13.863Z,499.38
2023-05-19T05:19:14.151Z,502.95
2023-05-19T05:20:14.278Z,507.08
2023-05-19T05:21:14.470Z,511.21
2023-05-19T05:22:16.746Z,514.98
2023-05-19T05:23:14.834Z,519.04
2023-05-19T05:24:14.038Z,522.50
2023-05-19T05:25:14.726Z,525.52
2023-05-19T05:26:14.453Z,529.27
2023-05-19T05:27:14.672Z,531.98
2023-05-19T05:28:16.863Z,535.70
2023-05-19T05:29:14.057Z,539.42
2023-05-19T05:30:14.246Z,542.95
2023-05-19T05:31:14.466Z,546.93
2023-05-19T05:32:13.694Z,550.26
2023-05-19T05:33:13.992Z,553.57
2023-05-19T05:34:14.052Z,556.28
2023-05-19T05:35:14.285Z,560.44
2023-05-19T05:36:14.475Z,563.23
2023-05-19T05:37:15.314Z,565.97
2023-05-19T05:38:14.852Z,568.72
2023-05-19T05:39:14.029Z,571.51
2023-05-19T05:40:14.242Z,575.23
2023-05-19T05:41:13.378Z,578.78
2023-05-19T05:42:13.550Z,581.21
2023-05-19T05:43:14.771Z,585.26
2023-05-19T05:44:13.937Z,588.03
2023-05-19T05:45:14.155Z,591.63
2023-05-19T05:46:13.367Z,594.40
2023-05-19T05:47:14.644Z,597.42
2023-05-19T05:48:16.032Z,601.42
2023-05-19T05:49:13.987Z,603.55
2023-05-19T05:50:14.188Z,606.53
2023-05-19T05:51:13.352Z,609.09
2023-05-19T05:52:14.537Z,612.66
2023-05-19T05:53:13.778Z,615.58
2023-05-19T05:54:13.911Z,618.56
2023-05-19T05:55:16.194Z,621.74
2023-05-19T05:56:14.257Z,624.35
2023-05-19T05:57:14.523Z,626.75
2023-05-19T05:58:13.697Z,619.08
2023-05-19T05:59:15.071Z,629.74
2023-05-19T06:00:13.094Z,633.45
2023-05-19T06:01:14.245Z,636.32
2023-05-19T06:02:13.659Z,639.55
2023-05-19T06:03:13.897Z,641.42
2023-05-19T06:04:13.928Z,644.01
2023-05-19T06:05:13.149Z,646.42
2023-05-19T06:06:13.258Z,649.13
2023-05-19T06:07:13.482Z,650.78
2023-05-19T06:08:13.718Z,653.90
2023-05-19T06:09:13.936Z,656.22
2023-05-19T06:10:13.176Z,658.05
2023-05-19T06:11:13.331Z,660.13
2023-05-19T06:12:13.529Z,661.82
2023-05-19T06:13:13.700Z,663.12
2023-05-19T06:14:13.881Z,665.27
2023-05-19T06:15:16.314Z,667.41
2023-05-19T06:16:13.249Z,670.04
2023-05-19T06:17:13.419Z,671.77
2023-05-19T06:18:17.689Z,673.36
2023-05-19T06:19:13.981Z,674.94
2023-05-19T06:20:14.004Z,677.09
2023-05-19T06:21:13.241Z,678.98
2023-05-19T06:22:13.372Z,680.30
2023-05-19T06:23:14.533Z,682.61
2023-05-19T06:24:14.773Z,684.72
2023-05-19T06:25:12.953Z,687.24
2023-05-19T06:26:13.159Z,689.15
2023-05-19T06:27:13.430Z,691.01
2023-05-19T06:28:14.497Z,693.49
2023-05-19T06:29:12.721Z,695.78
2023-05-19T06:30:13.954Z,698.69
2023-05-19T06:31:13.176Z,701.47
2023-05-19T06:32:14.293Z,703.50
2023-05-19T06:33:13.609Z,706.49
2023-05-19T06:34:12.781Z,709.40
2023-05-19T06:35:12.861Z,712.60
2023-05-19T06:36:16.122Z,714.67
2023-05-19T06:37:14.214Z,718.08
2023-05-19T06:38:14.410Z,720.95
2023-05-19T06:39:12.804Z,723.90
2023-05-19T06:40:12.803Z,726.35
2023-05-19T06:41:13.006Z,729.47
2023-05-19T06:42:13.199Z,731.83
2023-05-19T06:43:13.401Z,734.79
2023-05-19T06:44:12.541Z,737.57
2023-05-19T06:45:12.771Z,741.04
2023-05-19T06:46:12.959Z,743.00
2023-05-19T06:47:13.333Z,745.72
2023-05-19T06:48:13.348Z,749.44
2023-05-19T06:49:12.487Z,752.46
2023-05-19T06:50:12.858Z,755.91
2023-05-19T06:51:12.945Z,759.13
2023-05-19T06:52:13.087Z,761.90
2023-05-19T06:53:13.232Z,765.01
2023-05-19T06:54:12.395Z,768.09
2023-05-19T06:55:12.607Z,770.86
2023-05-19T06:56:12.833Z,774.74
2023-05-19T06:57:13.474Z,777.25
2023-05-19T06:58:13.193Z,780.45
2023-05-19T06:59:12.455Z,783.05
2023-05-19T07:00:13.986Z,787.59
2023-05-19T07:01:12.785Z,792.34
2023-05-19T07:02:13.075Z,794.82
2023-05-19T07:03:13.278Z,798.33
2023-05-19T07:04:12.357Z,801.63
2023-05-19T07:05:12.441Z,804.70
2023-05-19T07:06:12.632Z,809.04
2023-05-19T07:07:12.913Z,812.12
2023-05-19T07:08:16.235Z,815.60
2023-05-19T07:09:12.272Z,818.80
2023-05-19T07:10:17.498Z,822.99
2023-05-19T07:11:12.595Z,826.58
2023-05-19T07:12:12.755Z,829.26
2023-05-19T07:13:12.929Z,832.70
2023-05-19T07:14:13.164Z,836.22
2023-05-19T07:15:12.278Z,842.29
2023-05-19T07:16:12.447Z,845.75
2023-05-19T07:17:12.592Z,851.21
2023-05-19T07:18:13.793Z,856.10
2023-05-19T07:19:13.984Z,859.82
2023-05-19T07:20:12.167Z,863.52
2023-05-19T07:21:13.334Z,867.03
2023-05-19T07:22:13.437Z,871.52
2023-05-19T07:23:12.736Z,876.13
2023-05-19T07:24:13.795Z,879.32
2023-05-19T07:25:12.030Z,882.77
2023-05-19T07:26:12.197Z,886.77
2023-05-19T07:27:12.305Z,889.67
2023-05-19T07:28:16.717Z,892.74
2023-05-19T07:29:12.693Z,894.25
2023-05-19T07:30:12.816Z,898.16
2023-05-19T07:31:11.970Z,900.74
2023-05-19T07:32:12.498Z,905.33
2023-05-19T07:33:12.380Z,907.73
2023-05-19T07:34:13.599Z,911.11
2023-05-19T07:35:13.899Z,915.15
2023-05-19T07:36:12.009Z,917.58
2023-05-19T07:37:12.050Z,920.19
2023-05-19T07:38:12.226Z,922.72
2023-05-19T07:39:13.348Z,925.13
2023-05-19T07:40:13.510Z,928.50
2023-05-19T07:41:12.743Z,930.56
2023-05-19T07:42:11.860Z,933.89
2023-05-19T07:43:12.032Z,935.90
2023-05-19T07:44:12.245Z,939.25
2023-05-19T07:45:12.361Z,942.29
2023-05-19T07:46:12.699Z,946.16
2023-05-19T07:47:11.990Z,949.84
2023-05-19T07:48:11.941Z,951.83
2023-05-19T07:49:12.030Z,952.88
2023-05-19T07:50:12.277Z,956.73
2023-05-19T07:51:13.370Z,958.82
2023-05-19T07:52:12.550Z,961.95
2023-05-19T07:53:14.129Z,966.36
2023-05-19T07:54:11.834Z,969.74
2023-05-19T07:55:11.990Z,971.75
2023-05-19T07:56:12.208Z,975.44
2023-05-19T07:57:13.311Z,979.34
2023-05-19T07:58:13.435Z,982.24
2023-05-19T07:59:12.590Z,985.53
2023-05-19T08:00:12.808Z,989.59
2023-05-19T08:01:11.980Z,993.95
2023-05-19T08:02:13.899Z,997.18
2023-05-19T08:03:12.400Z,1000.92
2023-05-19T08:04:12.921Z,1003.87
2023-05-19T08:05:11.583Z,1008.42
2023-05-19T08:06:11.750Z,1012.14
2023-05-19T08:07:11.926Z,1016.31
2023-05-19T08:08:12.381Z,1020.54
2023-05-19T08:09:12.208Z,1023.14
2023-05-19T08:10:11.343Z,1026.80
2023-05-19T08:11:11.496Z,1031.66
2023-05-19T08:12:11.704Z,1035.88
2023-05-19T08:13:11.845Z,1037.65
2023-05-19T08:14:12.229Z,1041.13
2023-05-19T08:15:12.153Z,1043.07
2023-05-19T08:16:12.291Z,1047.48
2023-05-19T08:17:11.416Z,1051.62
2023-05-19T08:18:11.548Z,1055.69
2023-05-19T08:19:11.681Z,1059.87
2023-05-19T08:20:11.886Z,1062.96
2023-05-19T08:21:11.944Z,1065.26
2023-05-19T08:22:12.102Z,1068.45
2023-05-19T08:23:11.265Z,1072.27
2023-05-19T08:24:11.400Z,1075.54
2023-05-19T08:25:15.736Z,1078.61
2023-05-19T08:26:11.742Z,1082.10
2023-05-19T08:27:11.875Z,1084.99
2023-05-19T08:28:12.068Z,1089.50
2023-05-19T08:29:11.150Z,1091.58
2023-05-19T08:30:11.280Z,1095.18
2023-05-19T08:31:11.974Z,1100.18
2023-05-19T08:32:13.215Z,1105.21
2023-05-19T08:33:11.892Z,1110.34
2023-05-19T08:34:11.889Z,1113.44
2023-05-19T08:35:15.500Z,1117.92
2023-05-19T08:36:11.162Z,1122.56
2023-05-19T08:37:11.348Z,1129.03
2023-05-19T08:38:11.473Z,1137.11
2023-05-19T08:39:11.604Z,1142.32
2023-05-19T08:40:11.803Z,1147.80
2023-05-19T08:41:11.933Z,1149.79
2023-05-19T08:42:11.047Z,1154.29
2023-05-19T08:43:11.212Z,1162.11
2023-05-19T08:44:11.350Z,1172.29
2023-05-19T08:45:11.466Z,1177.54
2023-05-19T08:46:11.615Z,1177.71
2023-05-19T08:47:12.776Z,1177.54
2023-05-19T08:48:11.813Z,1163.67
2023-05-19T08:49:11.039Z,1165.21
2023-05-19T08:50:11.169Z,1150.41
2023-05-19T08:51:11.286Z,1128.72
2023-05-19T08:52:12.398Z,1183.40
2023-05-19T08:53:24.681Z,1200.68
2023-05-19T08:54:12.691Z,1208.51
2023-05-19T08:55:10.750Z,1221.09
2023-05-19T08:56:11.017Z,1247.13
2023-05-19T08:57:11.093Z,908.94
2023-05-19T08:58:16.385Z,1240.32
2023-05-19T08:59:11.342Z,860.12
2023-05-19T09:00:12.063Z,1232.93
2023-05-19T09:01:15.803Z,1159.27
2023-05-19T09:02:10.690Z,1147.29
2023-05-19T09:03:22.796Z,1097.82
2023-05-19T09:04:12.001Z,765.57
2023-05-19T09:05:11.243Z,890.05
2023-05-19T09:06:14.397Z,782.10
2023-05-19T09:07:12.355Z,1150.26
2023-05-19T09:08:12.509Z,695.31
2023-05-19T09:09:10.677Z,711.56
2023-05-19T09:10:11.747Z,709.83
2023-05-19T09:11:11.903Z,654.88
2023-05-19T09:12:11.115Z,699.65
2023-05-19T09:13:11.203Z,738.72
2023-05-19T09:14:17.467Z,727.98
2023-05-19T09:15:11.474Z,678.34
2023-05-19T09:16:10.616Z,1093.91
2023-05-19T09:17:10.775Z,809.91
2023-05-19T09:18:10.990Z,668.85
2023-05-19T09:19:12.025Z,678.16
2023-05-19T09:20:11.164Z,1406.16
2023-05-19T09:21:11.336Z,840.99
2023-05-19T09:22:11.427Z,952.08
2023-05-19T09:23:11.481Z,773.72
2023-05-19T09:24:10.722Z,723.56
2023-05-19T09:25:11.765Z,757.85
2023-05-19T09:26:17.088Z,721.19
2023-05-19T09:27:12.049Z,652.05
2023-05-19T09:28:15.364Z,726.09
2023-05-19T09:29:10.334Z,1400.95
2023-05-19T09:30:10.527Z,932.51
2023-05-19T09:31:11.561Z,1418.89
2023-05-19T09:32:11.766Z,1388.59
2023-05-19T09:33:10.931Z,1280.12
2023-05-19T09:34:12.027Z,1130.92
2023-05-19T09:35:11.139Z,943.05
2023-05-19T09:36:17.496Z,660.97
2023-05-19T09:37:10.373Z,671.00
2023-05-19T09:38:10.515Z,1213.48
2023-05-19T09:39:10.652Z,729.35
2023-05-19T09:40:13.064Z,840.80
2023-05-19T09:41:10.958Z,1423.26
2023-05-19T09:42:11.051Z,1432.89
2023-05-19T09:43:10.162Z,1520.72
2023-05-19T09:44:10.274Z,1471.20
2023-05-19T09:45:11.383Z,811.29
2023-05-19T09:46:12.130Z,782.12
2023-05-19T09:47:10.713Z,948.65
2023-05-19T09:48:11.746Z,1350.74
2023-05-19T09:49:10.950Z,1630.00
2023-05-19T09:50:10.033Z,1637.13
2023-05-19T09:51:11.176Z,810.34
2023-05-19T09:52:12.680Z,778.43
2023-05-19T09:53:10.465Z,791.26
2023-05-19T09:54:11.507Z,1618.32
2023-05-19T09:55:11.674Z,1652.14
2023-05-19T09:56:10.771Z,1569.28
2023-05-19T09:57:10.874Z,1608.04
2023-05-19T09:58:12.669Z,1600.79
2023-05-19T09:59:34.971Z,929.36
2023-05-19T10:00:17.800Z,784.43
2023-05-19T10:01:14.511Z,1588.19
2023-05-19T10:02:12.531Z,1232.22
2023-05-19T10:03:10.665Z,1130.18
2023-05-19T10:04:12.855Z,950.44
2023-05-19T10:05:16.067Z,1198.87
2023-05-19T10:06:18.156Z,1546.04
2023-05-19T10:07:10.067Z,1558.94
2023-05-19T10:08:10.189Z,1435.54
2023-05-19T10:09:10.324Z,1543.92
2023-05-19T10:10:11.487Z,1542.80
2023-05-19T10:11:10.620Z,1550.31
2023-05-19T10:12:11.626Z,1537.98
2023-05-19T10:13:10.705Z,1543.02
2023-05-19T10:14:09.850Z,1541.69
2023-05-19T10:15:12.030Z,1551.95
2023-05-19T10:16:11.226Z,1578.39
2023-05-19T10:17:10.179Z,1550.60
2023-05-19T10:18:11.294Z,1578.38
2023-05-19T10:19:10.457Z,1428.74
2023-05-19T10:20:10.506Z,1425.00
2023-05-19T10:21:11.541Z,1596.25
2023-05-19T10:22:09.767Z,1621.77
2023-05-19T10:23:09.756Z,1403.69
2023-05-19T10:24:11.487Z,1602.05
2023-05-19T10:25:10.913Z,1660.07
2023-05-19T10:26:10.078Z,1712.82
2023-05-19T10:27:10.206Z,855.59
2023-05-19T10:28:10.298Z,841.79
2023-05-19T10:29:38.105Z,762.75
2023-05-19T10:30:11.556Z,782.18
2023-05-19T10:31:09.569Z,809.13
2023-05-19T10:32:09.748Z,814.67
2023-05-19T10:33:09.870Z,812.98
2023-05-19T10:34:10.916Z,842.90
2023-05-19T10:35:09.990Z,823.11
2023-05-19T10:36:10.108Z,1075.28
2023-05-19T10:37:10.193Z,1376.67
2023-05-19T10:38:10.398Z,809.37
2023-05-19T10:39:10.445Z,773.64
2023-05-19T10:40:10.482Z,790.72
2023-05-19T10:41:10.608Z,1024.56
2023-05-19T10:42:09.752Z,1604.93
2023-05-19T10:43:10.944Z,1632.76
2023-05-19T10:44:12.054Z,1638.51
2023-05-19T10:45:10.091Z,1628.32
2023-05-19T10:46:10.202Z,1627.24
2023-05-19T10:47:09.292Z,1451.73
2023-05-19T10:48:10.492Z,1628.87
2023-05-19T10:49:10.522Z,1622.25
2023-05-19T10:50:10.555Z,1613.34
2023-05-19T10:51:11.161Z,1603.85
2023-05-19T10:52:12.828Z,870.77
2023-05-19T10:53:10.882Z,1380.66
2023-05-19T10:54:12.172Z,1254.55
2023-05-19T10:55:10.261Z,922.63
2023-05-19T10:56:09.267Z,1411.77
2023-05-19T10:57:10.429Z,1668.63
2023-05-19T10:58:09.473Z,1660.02
2023-05-19T10:59:10.517Z,1643.61
2023-05-19T11:00:11.886Z,1664.70
2023-05-19T11:01:10.746Z,1701.95
2023-05-19T11:02:09.957Z,1249.26
2023-05-19T11:03:10.063Z,1415.46
2023-05-19T11:04:09.152Z,927.77
2023-05-19T11:05:12.189Z,833.91
2023-05-19T11:06:09.325Z,900.86
2023-05-19T11:07:09.409Z,1583.74
2023-05-19T11:08:10.466Z,1604.53
2023-05-19T11:09:09.628Z,1577.91
2023-05-19T11:10:09.738Z,1555.85
2023-05-19T11:11:10.941Z,1544.32
2023-05-19T11:12:08.910Z,1546.06
2023-05-19T11:13:12.054Z,1540.34
2023-05-19T11:14:09.112Z,1533.94
2023-05-19T11:15:10.169Z,1529.98
2023-05-19T11:16:10.322Z,1527.84
2023-05-19T11:17:10.570Z,1526.46
2023-05-19T11:18:09.571Z,1524.83
2023-05-19T11:19:10.725Z,1531.57
2023-05-19T11:20:09.752Z,1540.59
2023-05-19T11:21:12.870Z,1546.61
2023-05-19T11:22:09.829Z,1549.18
2023-05-19T11:23:09.152Z,1544.62
2023-05-19T11:24:12.063Z,1540.13
2023-05-19T11:25:10.135Z,1540.10
2023-05-19T11:26:13.367Z,1537.59
2023-05-19T11:27:11.408Z,1538.06
2023-05-19T11:28:11.559Z,1539.51
2023-05-19T11:29:10.468Z,1540.37
2023-05-19T11:30:10.573Z,1544.92
2023-05-19T11:31:09.637Z,1549.57
2023-05-19T11:32:20.276Z,1548.10
2023-05-19T11:33:09.842Z,1550.33
2023-05-19T11:34:28.957Z,1553.90
2023-05-19T11:35:09.028Z,1549.05
2023-05-19T11:36:33.029Z,1476.40
2023-05-19T11:37:09.253Z,1515.50
2023-05-19T11:38:10.313Z,1474.00
2023-05-19T11:39:40.589Z,1515.50
2023-05-19T11:40:09.561Z,1555.63
2023-05-19T11:41:08.554Z,1502.46
2023-05-19T11:42:15.901Z,1544.88
2023-05-19T11:43:17.035Z,1544.95
2023-05-19T11:44:50.344Z,1543.45
2023-05-19T11:45:08.961Z,1544.00
2023-05-19T11:46:09.068Z,1548.50
2023-05-19T11:47:28.843Z,1552.76
2023-05-19T11:48:09.271Z,1550.50
2023-05-19T11:49:32.156Z,1551.08
2023-05-19T11:50:08.449Z,1551.85
2023-05-19T11:51:08.509Z,1552.15
2023-05-19T11:52:09.541Z,1546.43
2023-05-19T11:53:11.742Z,1542.31
2023-05-19T11:54:12.881Z,1547.69
2023-05-19T11:55:14.172Z,1557.45
2023-05-19T11:56:16.302Z,1566.99
2023-05-19T11:57:10.101Z,1568.67
2023-05-19T11:58:09.284Z,1563.42
2023-05-19T11:59:21.797Z,1552.05
2023-05-19T12:00:08.485Z,1550.25
2023-05-19T12:01:28.314Z,1538.34
2023-05-19T12:02:30.419Z,1532.92
2023-05-19T12:03:09.136Z,1530.88
2023-05-19T12:05:09.045Z,1545.05
2023-05-19T12:05:15.386Z,1546.61
2023-05-19T12:06:15.450Z,1548.49
2023-05-19T12:07:42.482Z,1547.56
2023-05-19T12:08:15.596Z,1546.49
2023-05-19T12:09:17.818Z,1551.01
2023-05-19T12:10:21.042Z,1549.77
2023-05-19T12:11:23.243Z,1553.69
2023-05-19T12:12:15.097Z,1552.97
2023-05-19T12:13:28.811Z,1551.84
2023-05-19T12:14:15.345Z,1543.23
2023-05-19T12:16:35.395Z,1562.51
2023-05-19T12:16:41.483Z,1562.24
2023-05-19T12:17:41.588Z,1562.05
2023-05-19T12:19:41.778Z,1558.30
2023-05-19T12:20:07.602Z,1553.35
2023-05-19T12:21:07.754Z,1536.67
2023-05-19T12:22:08.812Z,1551.65
2023-05-19T12:23:07.914Z,1567.68
2023-05-19T12:24:07.992Z,1568.33
2023-05-19T12:25:08.172Z,1567.90
2023-05-19T12:26:08.202Z,1567.44
2023-05-19T12:27:08.405Z,1570.79
2023-05-19T12:28:07.395Z,1572.12
2023-05-19T12:29:07.471Z,1573.41
2023-05-19T12:30:07.565Z,1580.98
2023-05-19T12:31:07.704Z,1580.59
2023-05-19T12:32:07.797Z,1582.61
2023-05-19T12:33:07.873Z,1578.48
2023-05-19T12:34:07.928Z,1573.20
2023-05-19T12:35:08.026Z,1569.08
2023-05-19T12:36:08.104Z,1571.13
2023-05-19T12:37:08.158Z,1568.42